sensor_id;sensor_type;location;lat;lon;timestamp;P1;durP1;ratioP1;P2;durP2;ratioP2
2546;SDS011;1283;47.982;7.834;2022-12-29T00:01:29;3.50;;;0.90;;
2546;SDS011;1283;47.982;7.834;2022-12-29T00:03:55;3.13;;;0.95;;
2546;SDS011;1283;47.982;7.834;2022-12-29T00:06:22;4.40;;;1.10;;
2546;SDS011;1283;47.982;7.834;2022-12-29T00:08:50;3.03;;;0.75;;
2546;SDS011;1283;47.982;7.834;2022-12-29T00:11:17;2.63;;;0.60;;
2546;SDS011;1283;47.982;7.834;2022-12-29T00:13:44;2.70;;;0.90;;
2546;SDS011;1283;47.982;7.834;2022-12-29T00:16:29;2.70;;;0.82;;
2546;SDS011;1283;47.982;7.834;2022-12-29T00:18:56;5.20;;;0.80;;
2546;SDS011;1283;47.982;7.834;2022-12-29T00:21:23;4.82;;;1.10;;
2546;SDS011;1283;47.982;7.834;2022-12-29T00:24:10;3.25;;;1.05;;
2546;SDS011;1283;47.982;7.834;2022-12-29T00:26:57;5.85;;;0.98;;
2546;SDS011;1283;47.982;7.834;2022-12-29T00:29:42;2.22;;;0.90;;
2546;SDS011;1283;47.982;7.834;2022-12-29T00:32:26;5.00;;;0.80;;
2546;SDS011;1283;47.982;7.834;2022-12-29T00:35:11;6.72;;;0.80;;
2546;SDS011;1283;47.982;7.834;2022-12-29T00:37:39;3.60;;;0.95;;
2546;SDS011;1283;47.982;7.834;2022-12-29T00:40:26;1.40;;;0.77;;
2546;SDS011;1283;47.982;7.834;2022-12-29T00:43:10;1.65;;;0.70;;
2546;SDS011;1283;47.982;7.834;2022-12-29T00:45:54;3.55;;;0.88;;
2546;SDS011;1283;47.982;7.834;2022-12-29T00:48:20;3.47;;;0.80;;
2546;SDS011;1283;47.982;7.834;2022-12-29T00:51:00;4.57;;;0.90;;
2546;SDS011;1283;47.982;7.834;2022-12-29T00:53:27;2.72;;;0.70;;
2546;SDS011;1283;47.982;7.834;2022-12-29T00:55:55;1.80;;;0.75;;
2546;SDS011;1283;47.982;7.834;2022-12-29T00:58:21;1.33;;;0.70;;
2546;SDS011;1283;47.982;7.834;2022-12-29T01:00:48;4.07;;;0.80;;
2546;SDS011;1283;47.982;7.834;2022-12-29T01:03:14;3.33;;;0.60;;
2546;SDS011;1283;47.982;7.834;2022-12-29T01:05:40;2.60;;;0.70;;
2546;SDS011;1283;47.982;7.834;2022-12-29T01:08:08;2.22;;;0.70;;
2546;SDS011;1283;47.982;7.834;2022-12-29T01:10:34;3.63;;;0.90;;
2546;SDS011;1283;47.982;7.834;2022-12-29T01:13:01;3.50;;;0.70;;
2546;SDS011;1283;47.982;7.834;2022-12-29T01:15:27;3.60;;;0.90;;
2546;SDS011;1283;47.982;7.834;2022-12-29T01:17:54;4.30;;;0.90;;
2546;SDS011;1283;47.982;7.834;2022-12-29T01:20:20;4.63;;;0.70;;
2546;SDS011;1283;47.982;7.834;2022-12-29T01:22:47;1.05;;;0.70;;
2546;SDS011;1283;47.982;7.834;2022-12-29T01:25:13;3.90;;;0.85;;
2546;SDS011;1283;47.982;7.834;2022-12-29T01:27:39;4.70;;;1.00;;
2546;SDS011;1283;47.982;7.834;2022-12-29T01:30:08;3.92;;;1.00;;
2546;SDS011;1283;47.982;7.834;2022-12-29T01:32:35;4.93;;;1.27;;
2546;SDS011;1283;47.982;7.834;2022-12-29T01:35:02;2.17;;;0.90;;
2546;SDS011;1283;47.982;7.834;2022-12-29T01:37:28;2.30;;;0.95;;
2546;SDS011;1283;47.982;7.834;2022-12-29T01:39:55;2.60;;;0.70;;
2546;SDS011;1283;47.982;7.834;2022-12-29T01:42:22;5.35;;;0.88;;
2546;SDS011;1283;47.982;7.834;2022-12-29T01:44:52;1.98;;;0.80;;
2546;SDS011;1283;47.982;7.834;2022-12-29T01:47:26;2.58;;;0.90;;
2546;SDS011;1283;47.982;7.834;2022-12-29T01:49:57;3.90;;;0.90;;
2546;SDS011;1283;47.982;7.834;2022-12-29T01:52:28;1.25;;;0.80;;
2546;SDS011;1283;47.982;7.834;2022-12-29T01:54:56;6.25;;;0.90;;
2546;SDS011;1283;47.982;7.834;2022-12-29T01:57:24;1.05;;;0.80;;
2546;SDS011;1283;47.982;7.834;2022-12-29T01:59:53;5.97;;;1.00;;
2546;SDS011;1283;47.982;7.834;2022-12-29T02:02:22;1.38;;;0.75;;
2546;SDS011;1283;47.982;7.834;2022-12-29T02:04:51;3.00;;;0.70;;
2546;SDS011;1283;47.982;7.834;2022-12-29T02:07:19;4.35;;;1.10;;
2546;SDS011;1283;47.982;7.834;2022-12-29T02:09:46;2.45;;;0.90;;
2546;SDS011;1283;47.982;7.834;2022-12-29T02:12:14;3.83;;;0.90;;
2546;SDS011;1283;47.982;7.834;2022-12-29T02:14:40;3.72;;;1.10;;
2546;SDS011;1283;47.982;7.834;2022-12-29T02:17:08;9.85;;;0.95;;
2546;SDS011;1283;47.982;7.834;2022-12-29T02:20:02;3.33;;;1.00;;
2546;SDS011;1283;47.982;7.834;2022-12-29T02:22:44;6.07;;;1.08;;
2546;SDS011;1283;47.982;7.834;2022-12-29T02:25:30;1.70;;;0.73;;
2546;SDS011;1283;47.982;7.834;2022-12-29T02:28:24;4.05;;;1.25;;
2546;SDS011;1283;47.982;7.834;2022-12-29T02:31:08;3.92;;;1.10;;
2546;SDS011;1283;47.982;7.834;2022-12-29T02:33:41;2.40;;;1.00;;
2546;SDS011;1283;47.982;7.834;2022-12-29T02:36:20;3.70;;;0.98;;
2546;SDS011;1283;47.982;7.834;2022-12-29T02:38:51;2.38;;;0.90;;
2546;SDS011;1283;47.982;7.834;2022-12-29T02:41:23;8.38;;;1.85;;
2546;SDS011;1283;47.982;7.834;2022-12-29T02:43:59;4.85;;;1.00;;
2546;SDS011;1283;47.982;7.834;2022-12-29T02:46:33;3.97;;;1.30;;
2546;SDS011;1283;47.982;7.834;2022-12-29T02:49:03;4.28;;;1.13;;
2546;SDS011;1283;47.982;7.834;2022-12-29T02:51:32;6.88;;;1.98;;
2546;SDS011;1283;47.982;7.834;2022-12-29T02:54:02;1.85;;;0.80;;
2546;SDS011;1283;47.982;7.834;2022-12-29T02:56:47;2.33;;;1.30;;
2546;SDS011;1283;47.982;7.834;2022-12-29T02:59:13;3.55;;;1.20;;
2546;SDS011;1283;47.982;7.834;2022-12-29T03:01:45;2.40;;;1.38;;
2546;SDS011;1283;47.982;7.834;2022-12-29T03:04:47;3.97;;;1.52;;
2546;SDS011;1283;47.982;7.834;2022-12-29T03:07:26;4.32;;;1.58;;
2546;SDS011;1283;47.982;7.834;2022-12-29T03:09:59;4.60;;;1.40;;
2546;SDS011;1283;47.982;7.834;2022-12-29T03:12:31;2.10;;;1.20;;
2546;SDS011;1283;47.982;7.834;2022-12-29T03:15:20;2.67;;;1.27;;
2546;SDS011;1283;47.982;7.834;2022-12-29T03:18:09;6.72;;;1.38;;
2546;SDS011;1283;47.982;7.834;2022-12-29T03:20:39;6.10;;;1.30;;
2546;SDS011;1283;47.982;7.834;2022-12-29T03:23:08;6.75;;;1.13;;
2546;SDS011;1283;47.982;7.834;2022-12-29T03:25:33;2.13;;;1.23;;
2546;SDS011;1283;47.982;7.834;2022-12-29T03:28:03;5.05;;;1.20;;
2546;SDS011;1283;47.982;7.834;2022-12-29T03:30:33;5.22;;;1.63;;
2546;SDS011;1283;47.982;7.834;2022-12-29T03:33:01;6.60;;;1.52;;
2546;SDS011;1283;47.982;7.834;2022-12-29T03:35:31;2.53;;;1.73;;
2546;SDS011;1283;47.982;7.834;2022-12-29T03:38:02;4.50;;;1.67;;
2546;SDS011;1283;47.982;7.834;2022-12-29T03:40:33;2.22;;;1.50;;
2546;SDS011;1283;47.982;7.834;2022-12-29T03:43:00;4.40;;;1.60;;
2546;SDS011;1283;47.982;7.834;2022-12-29T03:45:28;4.43;;;1.65;;
2546;SDS011;1283;47.982;7.834;2022-12-29T03:47:54;4.35;;;1.50;;
2546;SDS011;1283;47.982;7.834;2022-12-29T03:50:21;4.30;;;1.40;;
2546;SDS011;1283;47.982;7.834;2022-12-29T03:52:49;6.60;;;1.45;;
2546;SDS011;1283;47.982;7.834;2022-12-29T03:55:15;4.95;;;1.67;;
2546;SDS011;1283;47.982;7.834;2022-12-29T03:57:42;2.47;;;1.65;;
2546;SDS011;1283;47.982;7.834;2022-12-29T04:00:08;3.25;;;1.45;;
2546;SDS011;1283;47.982;7.834;2022-12-29T04:02:35;4.47;;;1.85;;
2546;SDS011;1283;47.982;7.834;2022-12-29T04:05:02;2.95;;;1.20;;
2546;SDS011;1283;47.982;7.834;2022-12-29T04:07:30;3.08;;;1.70;;
2546;SDS011;1283;47.982;7.834;2022-12-29T04:09:58;4.57;;;1.70;;
2546;SDS011;1283;47.982;7.834;2022-12-29T04:12:24;2.75;;;1.70;;
2546;SDS011;1283;47.982;7.834;2022-12-29T04:14:51;5.00;;;1.40;;
2546;SDS011;1283;47.982;7.834;2022-12-29T04:17:17;3.97;;;1.63;;
2546;SDS011;1283;47.982;7.834;2022-12-29T04:19:44;3.00;;;1.48;;
2546;SDS011;1283;47.982;7.834;2022-12-29T04:22:10;4.60;;;1.45;;
2546;SDS011;1283;47.982;7.834;2022-12-29T04:24:37;5.80;;;1.52;;
2546;SDS011;1283;47.982;7.834;2022-12-29T04:27:05;4.03;;;1.75;;
2546;SDS011;1283;47.982;7.834;2022-12-29T04:29:31;10.70;;;1.90;;
2546;SDS011;1283;47.982;7.834;2022-12-29T04:31:58;6.78;;;1.75;;
2546;SDS011;1283;47.982;7.834;2022-12-29T04:34:24;4.05;;;1.67;;
2546;SDS011;1283;47.982;7.834;2022-12-29T04:36:51;4.07;;;1.60;;
2546;SDS011;1283;47.982;7.834;2022-12-29T04:39:17;6.60;;;1.80;;
2546;SDS011;1283;47.982;7.834;2022-12-29T04:41:44;4.85;;;2.25;;
2546;SDS011;1283;47.982;7.834;2022-12-29T04:44:12;6.95;;;2.15;;
2546;SDS011;1283;47.982;7.834;2022-12-29T04:46:39;4.45;;;1.55;;
2546;SDS011;1283;47.982;7.834;2022-12-29T04:49:05;4.53;;;1.73;;
2546;SDS011;1283;47.982;7.834;2022-12-29T04:51:33;3.35;;;2.45;;
2546;SDS011;1283;47.982;7.834;2022-12-29T04:54:00;3.08;;;1.55;;
2546;SDS011;1283;47.982;7.834;2022-12-29T04:56:26;4.10;;;1.30;;
2546;SDS011;1283;47.982;7.834;2022-12-29T04:58:53;4.18;;;1.48;;
2546;SDS011;1283;47.982;7.834;2022-12-29T05:01:21;4.18;;;1.65;;
2546;SDS011;1283;47.982;7.834;2022-12-29T05:03:49;4.57;;;1.30;;
2546;SDS011;1283;47.982;7.834;2022-12-29T05:06:15;2.30;;;1.38;;
2546;SDS011;1283;47.982;7.834;2022-12-29T05:08:42;6.90;;;1.02;;
2546;SDS011;1283;47.982;7.834;2022-12-29T05:11:08;2.42;;;1.27;;
2546;SDS011;1283;47.982;7.834;2022-12-29T05:13:35;3.83;;;1.10;;
2546;SDS011;1283;47.982;7.834;2022-12-29T05:16:01;2.50;;;1.20;;
2546;SDS011;1283;47.982;7.834;2022-12-29T05:18:29;2.70;;;1.10;;
2546;SDS011;1283;47.982;7.834;2022-12-29T05:20:56;1.70;;;1.00;;
2546;SDS011;1283;47.982;7.834;2022-12-29T05:23:22;1.90;;;1.10;;
2546;SDS011;1283;47.982;7.834;2022-12-29T05:25:49;2.45;;;1.02;;
2546;SDS011;1283;47.982;7.834;2022-12-29T05:28:15;2.35;;;0.98;;
2546;SDS011;1283;47.982;7.834;2022-12-29T05:30:42;3.13;;;1.35;;
2546;SDS011;1283;47.982;7.834;2022-12-29T05:33:08;6.65;;;1.20;;
2546;SDS011;1283;47.982;7.834;2022-12-29T05:35:37;1.30;;;0.82;;
2546;SDS011;1283;47.982;7.834;2022-12-29T05:38:04;5.25;;;1.20;;
2546;SDS011;1283;47.982;7.834;2022-12-29T05:40:30;2.80;;;1.02;;
2546;SDS011;1283;47.982;7.834;2022-12-29T05:42:57;1.92;;;0.90;;
2546;SDS011;1283;47.982;7.834;2022-12-29T05:45:23;3.08;;;0.98;;
2546;SDS011;1283;47.982;7.834;2022-12-29T05:47:50;1.60;;;0.82;;
2546;SDS011;1283;47.982;7.834;2022-12-29T05:50:16;6.75;;;1.25;;
2546;SDS011;1283;47.982;7.834;2022-12-29T05:52:44;2.58;;;0.90;;
2546;SDS011;1283;47.982;7.834;2022-12-29T05:55:11;3.03;;;0.82;;
2546;SDS011;1283;47.982;7.834;2022-12-29T05:57:37;0.77;;;0.65;;
2546;SDS011;1283;47.982;7.834;2022-12-29T06:00:04;1.55;;;1.25;;
2546;SDS011;1283;47.982;7.834;2022-12-29T06:02:32;0.90;;;0.70;;
2546;SDS011;1283;47.982;7.834;2022-12-29T06:04:58;0.75;;;0.70;;
2546;SDS011;1283;47.982;7.834;2022-12-29T06:07:25;4.13;;;0.93;;
2546;SDS011;1283;47.982;7.834;2022-12-29T06:09:52;3.42;;;0.90;;
2546;SDS011;1283;47.982;7.834;2022-12-29T06:12:19;1.75;;;0.75;;
2546;SDS011;1283;47.982;7.834;2022-12-29T06:14:45;1.65;;;1.00;;
2546;SDS011;1283;47.982;7.834;2022-12-29T06:17:12;2.25;;;0.60;;
2546;SDS011;1283;47.982;7.834;2022-12-29T06:19:38;2.05;;;1.00;;
2546;SDS011;1283;47.982;7.834;2022-12-29T06:22:04;2.85;;;0.75;;
2546;SDS011;1283;47.982;7.834;2022-12-29T06:24:32;2.95;;;1.00;;
2546;SDS011;1283;47.982;7.834;2022-12-29T06:26:59;3.40;;;1.00;;
2546;SDS011;1283;47.982;7.834;2022-12-29T06:29:26;1.48;;;0.80;;
2546;SDS011;1283;47.982;7.834;2022-12-29T06:31:53;4.78;;;0.82;;
2546;SDS011;1283;47.982;7.834;2022-12-29T06:34:22;1.50;;;0.80;;
2546;SDS011;1283;47.982;7.834;2022-12-29T06:36:49;6.10;;;1.38;;
2546;SDS011;1283;47.982;7.834;2022-12-29T06:39:15;2.53;;;0.90;;
2546;SDS011;1283;47.982;7.834;2022-12-29T06:41:42;4.93;;;0.80;;
2546;SDS011;1283;47.982;7.834;2022-12-29T06:44:10;3.45;;;0.90;;
2546;SDS011;1283;47.982;7.834;2022-12-29T06:46:36;2.30;;;0.73;;
2546;SDS011;1283;47.982;7.834;2022-12-29T06:49:02;2.13;;;0.80;;
2546;SDS011;1283;47.982;7.834;2022-12-29T06:51:29;3.58;;;0.80;;
2546;SDS011;1283;47.982;7.834;2022-12-29T06:53:55;2.63;;;1.00;;
2546;SDS011;1283;47.982;7.834;2022-12-29T06:56:22;1.27;;;0.93;;
2546;SDS011;1283;47.982;7.834;2022-12-29T06:58:48;3.25;;;1.42;;
2546;SDS011;1283;47.982;7.834;2022-12-29T07:01:16;2.40;;;0.68;;
2546;SDS011;1283;47.982;7.834;2022-12-29T07:03:44;2.05;;;0.80;;
2546;SDS011;1283;47.982;7.834;2022-12-29T07:06:10;1.52;;;0.60;;
2546;SDS011;1283;47.982;7.834;2022-12-29T07:08:37;9.45;;;1.40;;
2546;SDS011;1283;47.982;7.834;2022-12-29T07:11:03;3.72;;;1.30;;
2546;SDS011;1283;47.982;7.834;2022-12-29T07:13:30;1.20;;;0.70;;
2546;SDS011;1283;47.982;7.834;2022-12-29T07:15:56;5.95;;;0.90;;
2546;SDS011;1283;47.982;7.834;2022-12-29T07:18:24;4.28;;;0.80;;
2546;SDS011;1283;47.982;7.834;2022-12-29T07:20:50;3.08;;;0.77;;
2546;SDS011;1283;47.982;7.834;2022-12-29T07:23:17;2.88;;;0.95;;
2546;SDS011;1283;47.982;7.834;2022-12-29T07:25:43;1.00;;;0.60;;
2546;SDS011;1283;47.982;7.834;2022-12-29T07:28:09;1.63;;;0.70;;
2546;SDS011;1283;47.982;7.834;2022-12-29T07:30:36;1.75;;;0.70;;
2546;SDS011;1283;47.982;7.834;2022-12-29T07:33:03;1.58;;;0.90;;
2546;SDS011;1283;47.982;7.834;2022-12-29T07:35:31;1.45;;;0.98;;
2546;SDS011;1283;47.982;7.834;2022-12-29T07:37:57;5.13;;;0.90;;
2546;SDS011;1283;47.982;7.834;2022-12-29T07:40:23;4.15;;;0.73;;
2546;SDS011;1283;47.982;7.834;2022-12-29T07:42:50;3.10;;;1.00;;
2546;SDS011;1283;47.982;7.834;2022-12-29T07:45:16;3.28;;;0.77;;
2546;SDS011;1283;47.982;7.834;2022-12-29T07:47:43;3.15;;;0.82;;
2546;SDS011;1283;47.982;7.834;2022-12-29T07:50:09;1.75;;;0.80;;
2546;SDS011;1283;47.982;7.834;2022-12-29T07:52:37;1.38;;;0.85;;
2546;SDS011;1283;47.982;7.834;2022-12-29T07:55:04;2.40;;;0.80;;
2546;SDS011;1283;47.982;7.834;2022-12-29T07:57:31;2.15;;;0.95;;
2546;SDS011;1283;47.982;7.834;2022-12-29T07:59:57;2.38;;;0.80;;
2546;SDS011;1283;47.982;7.834;2022-12-29T08:02:24;2.92;;;0.77;;
2546;SDS011;1283;47.982;7.834;2022-12-29T08:04:51;1.85;;;0.73;;
2546;SDS011;1283;47.982;7.834;2022-12-29T08:07:17;3.03;;;1.05;;
2546;SDS011;1283;47.982;7.834;2022-12-29T08:09:45;3.55;;;0.90;;
2546;SDS011;1283;47.982;7.834;2022-12-29T08:12:11;2.58;;;0.85;;
2546;SDS011;1283;47.982;7.834;2022-12-29T08:14:38;1.55;;;0.80;;
2546;SDS011;1283;47.982;7.834;2022-12-29T08:17:04;7.20;;;0.90;;
2546;SDS011;1283;47.982;7.834;2022-12-29T08:19:31;2.85;;;1.10;;
2546;SDS011;1283;47.982;7.834;2022-12-29T08:21:57;1.95;;;0.80;;
2546;SDS011;1283;47.982;7.834;2022-12-29T08:24:24;3.47;;;1.00;;
2546;SDS011;1283;47.982;7.834;2022-12-29T08:26:51;3.40;;;1.00;;
2546;SDS011;1283;47.982;7.834;2022-12-29T08:29:18;2.20;;;1.17;;
2546;SDS011;1283;47.982;7.834;2022-12-29T08:31:44;1.38;;;0.93;;
2546;SDS011;1283;47.982;7.834;2022-12-29T08:34:11;3.85;;;1.10;;
2546;SDS011;1283;47.982;7.834;2022-12-29T08:36:37;0.80;;;0.63;;
2546;SDS011;1283;47.982;7.834;2022-12-29T08:39:03;4.57;;;0.90;;
2546;SDS011;1283;47.982;7.834;2022-12-29T08:41:30;2.67;;;0.90;;
2546;SDS011;1283;47.982;7.834;2022-12-29T08:43:58;2.75;;;1.00;;
2546;SDS011;1283;47.982;7.834;2022-12-29T08:46:24;2.80;;;0.98;;
2546;SDS011;1283;47.982;7.834;2022-12-29T08:48:51;5.95;;;1.10;;
2546;SDS011;1283;47.982;7.834;2022-12-29T08:51:17;2.95;;;0.85;;
2546;SDS011;1283;47.982;7.834;2022-12-29T08:53:43;7.75;;;1.88;;
2546;SDS011;1283;47.982;7.834;2022-12-29T08:56:10;1.92;;;1.00;;
2546;SDS011;1283;47.982;7.834;2022-12-29T08:58:37;1.60;;;0.80;;
2546;SDS011;1283;47.982;7.834;2022-12-29T09:01:05;2.00;;;0.98;;
2546;SDS011;1283;47.982;7.834;2022-12-29T09:03:33;3.15;;;1.58;;
2546;SDS011;1283;47.982;7.834;2022-12-29T09:05:59;5.15;;;1.05;;
2546;SDS011;1283;47.982;7.834;2022-12-29T09:08:26;3.10;;;0.90;;
2546;SDS011;1283;47.982;7.834;2022-12-29T09:10:52;3.80;;;1.38;;
2546;SDS011;1283;47.982;7.834;2022-12-29T09:13:19;4.60;;;0.82;;
2546;SDS011;1283;47.982;7.834;2022-12-29T09:15:46;3.70;;;0.85;;
2546;SDS011;1283;47.982;7.834;2022-12-29T09:18:13;3.83;;;1.00;;
2546;SDS011;1283;47.982;7.834;2022-12-29T09:20:40;12.90;;;1.23;;
2546;SDS011;1283;47.982;7.834;2022-12-29T09:23:07;3.45;;;0.80;;
2546;SDS011;1283;47.982;7.834;2022-12-29T09:25:34;1.50;;;0.90;;
2546;SDS011;1283;47.982;7.834;2022-12-29T09:28:00;2.65;;;1.02;;
2546;SDS011;1283;47.982;7.834;2022-12-29T09:30:32;5.35;;;1.40;;
2546;SDS011;1283;47.982;7.834;2022-12-29T09:32:58;4.22;;;1.17;;
2546;SDS011;1283;47.982;7.834;2022-12-29T09:35:26;1.83;;;1.10;;
2546;SDS011;1283;47.982;7.834;2022-12-29T09:37:53;2.13;;;0.93;;
2546;SDS011;1283;47.982;7.834;2022-12-29T09:40:22;2.92;;;1.10;;
2546;SDS011;1283;47.982;7.834;2022-12-29T09:42:55;3.33;;;0.90;;
2546;SDS011;1283;47.982;7.834;2022-12-29T09:45:29;5.15;;;1.35;;
2546;SDS011;1283;47.982;7.834;2022-12-29T09:47:59;4.93;;;1.30;;
2546;SDS011;1283;47.982;7.834;2022-12-29T09:50:28;3.58;;;1.13;;
2546;SDS011;1283;47.982;7.834;2022-12-29T09:52:58;2.05;;;1.20;;
2546;SDS011;1283;47.982;7.834;2022-12-29T09:55:29;2.22;;;1.00;;
2546;SDS011;1283;47.982;7.834;2022-12-29T09:57:59;4.10;;;1.10;;
2546;SDS011;1283;47.982;7.834;2022-12-29T10:00:32;4.25;;;1.30;;
2546;SDS011;1283;47.982;7.834;2022-12-29T10:03:04;6.07;;;1.42;;
2546;SDS011;1283;47.982;7.834;2022-12-29T10:05:35;2.78;;;1.20;;
2546;SDS011;1283;47.982;7.834;2022-12-29T10:08:10;4.55;;;1.50;;
2546;SDS011;1283;47.982;7.834;2022-12-29T10:10:46;5.03;;;1.75;;
2546;SDS011;1283;47.982;7.834;2022-12-29T10:13:22;3.42;;;1.95;;
2546;SDS011;1283;47.982;7.834;2022-12-29T10:15:57;8.38;;;2.50;;
2546;SDS011;1283;47.982;7.834;2022-12-29T10:18:32;3.25;;;1.38;;
2546;SDS011;1283;47.982;7.834;2022-12-29T10:21:13;2.75;;;1.42;;
2546;SDS011;1283;47.982;7.834;2022-12-29T10:23:44;12.50;;;1.73;;
2546;SDS011;1283;47.982;7.834;2022-12-29T10:26:13;4.90;;;1.60;;
2546;SDS011;1283;47.982;7.834;2022-12-29T10:28:42;3.42;;;1.85;;
2546;SDS011;1283;47.982;7.834;2022-12-29T10:31:11;7.68;;;1.73;;
2546;SDS011;1283;47.982;7.834;2022-12-29T10:33:41;3.75;;;1.25;;
2546;SDS011;1283;47.982;7.834;2022-12-29T10:36:12;4.30;;;1.50;;
2546;SDS011;1283;47.982;7.834;2022-12-29T10:38:43;4.65;;;1.63;;
2546;SDS011;1283;47.982;7.834;2022-12-29T10:41:15;7.88;;;1.55;;
2546;SDS011;1283;47.982;7.834;2022-12-29T10:43:45;4.35;;;1.52;;
2546;SDS011;1283;47.982;7.834;2022-12-29T10:46:13;3.38;;;1.63;;
2546;SDS011;1283;47.982;7.834;2022-12-29T10:48:42;5.00;;;2.53;;
2546;SDS011;1283;47.982;7.834;2022-12-29T10:51:14;6.63;;;1.80;;
2546;SDS011;1283;47.982;7.834;2022-12-29T10:53:45;5.47;;;1.50;;
2546;SDS011;1283;47.982;7.834;2022-12-29T10:56:15;4.93;;;1.45;;
2546;SDS011;1283;47.982;7.834;2022-12-29T10:58:46;2.75;;;1.50;;
2546;SDS011;1283;47.982;7.834;2022-12-29T11:01:16;3.13;;;1.42;;
2546;SDS011;1283;47.982;7.834;2022-12-29T11:03:46;5.05;;;1.40;;
2546;SDS011;1283;47.982;7.834;2022-12-29T11:06:19;5.57;;;1.30;;
2546;SDS011;1283;47.982;7.834;2022-12-29T11:08:51;8.20;;;1.65;;
2546;SDS011;1283;47.982;7.834;2022-12-29T11:11:24;6.28;;;1.92;;
2546;SDS011;1283;47.982;7.834;2022-12-29T11:13:55;9.23;;;1.85;;
2546;SDS011;1283;47.982;7.834;2022-12-29T11:16:26;4.18;;;1.50;;
2546;SDS011;1283;47.982;7.834;2022-12-29T11:18:56;3.75;;;1.30;;
2546;SDS011;1283;47.982;7.834;2022-12-29T11:21:26;3.83;;;1.83;;
2546;SDS011;1283;47.982;7.834;2022-12-29T11:23:57;4.57;;;1.50;;
2546;SDS011;1283;47.982;7.834;2022-12-29T11:26:24;4.85;;;1.30;;
2546;SDS011;1283;47.982;7.834;2022-12-29T11:29:05;4.88;;;1.33;;
2546;SDS011;1283;47.982;7.834;2022-12-29T11:31:43;3.15;;;1.67;;
2546;SDS011;1283;47.982;7.834;2022-12-29T11:34:16;2.47;;;1.15;;
2546;SDS011;1283;47.982;7.834;2022-12-29T11:36:44;4.63;;;1.65;;
2546;SDS011;1283;47.982;7.834;2022-12-29T11:39:21;3.58;;;1.13;;
2546;SDS011;1283;47.982;7.834;2022-12-29T11:41:52;4.93;;;1.42;;
2546;SDS011;1283;47.982;7.834;2022-12-29T11:44:19;3.45;;;1.27;;
2546;SDS011;1283;47.982;7.834;2022-12-29T11:46:46;4.38;;;1.33;;
2546;SDS011;1283;47.982;7.834;2022-12-29T11:49:18;2.80;;;1.20;;
2546;SDS011;1283;47.982;7.834;2022-12-29T11:51:47;5.95;;;0.95;;
2546;SDS011;1283;47.982;7.834;2022-12-29T11:54:16;9.45;;;1.10;;
2546;SDS011;1283;47.982;7.834;2022-12-29T11:56:45;4.25;;;1.00;;
2546;SDS011;1283;47.982;7.834;2022-12-29T11:59:24;2.38;;;1.02;;
2546;SDS011;1283;47.982;7.834;2022-12-29T12:01:56;1.85;;;1.10;;
2546;SDS011;1283;47.982;7.834;2022-12-29T12:04:24;1.92;;;1.00;;
2546;SDS011;1283;47.982;7.834;2022-12-29T12:06:56;2.13;;;1.00;;
2546;SDS011;1283;47.982;7.834;2022-12-29T12:09:26;3.17;;;1.02;;
2546;SDS011;1283;47.982;7.834;2022-12-29T12:11:55;1.88;;;0.93;;
2546;SDS011;1283;47.982;7.834;2022-12-29T12:14:23;3.17;;;1.08;;
2546;SDS011;1283;47.982;7.834;2022-12-29T12:16:53;7.45;;;1.17;;
2546;SDS011;1283;47.982;7.834;2022-12-29T12:19:24;1.48;;;0.93;;
2546;SDS011;1283;47.982;7.834;2022-12-29T12:22:00;5.78;;;1.30;;
2546;SDS011;1283;47.982;7.834;2022-12-29T12:24:37;2.35;;;1.10;;
2546;SDS011;1283;47.982;7.834;2022-12-29T12:27:09;2.67;;;1.02;;
2546;SDS011;1283;47.982;7.834;2022-12-29T12:29:40;5.25;;;1.50;;
2546;SDS011;1283;47.982;7.834;2022-12-29T12:32:11;2.25;;;1.27;;
2546;SDS011;1283;47.982;7.834;2022-12-29T12:34:41;2.00;;;0.88;;
2546;SDS011;1283;47.982;7.834;2022-12-29T12:37:28;4.03;;;1.20;;
2546;SDS011;1283;47.982;7.834;2022-12-29T12:43:08;2.13;;;1.00;;
2546;SDS011;1283;47.982;7.834;2022-12-29T12:45:45;3.90;;;1.30;;
2546;SDS011;1283;47.982;7.834;2022-12-29T12:48:21;3.15;;;1.23;;
2546;SDS011;1283;47.982;7.834;2022-12-29T12:51:02;3.78;;;1.50;;
2546;SDS011;1283;47.982;7.834;2022-12-29T12:53:42;5.63;;;1.27;;
2546;SDS011;1283;47.982;7.834;2022-12-29T12:56:22;3.03;;;1.20;;
2546;SDS011;1283;47.982;7.834;2022-12-29T12:58:56;1.75;;;1.10;;
2546;SDS011;1283;47.982;7.834;2022-12-29T13:01:29;2.22;;;0.95;;
2546;SDS011;1283;47.982;7.834;2022-12-29T13:04:06;4.82;;;1.10;;
2546;SDS011;1283;47.982;7.834;2022-12-29T13:06:43;2.22;;;1.35;;
2546;SDS011;1283;47.982;7.834;2022-12-29T13:09:25;3.80;;;1.30;;
2546;SDS011;1283;47.982;7.834;2022-12-29T13:12:00;2.60;;;1.15;;
2546;SDS011;1283;47.982;7.834;2022-12-29T13:14:33;3.00;;;1.30;;
2546;SDS011;1283;47.982;7.834;2022-12-29T13:17:08;5.40;;;1.27;;
2546;SDS011;1283;47.982;7.834;2022-12-29T13:19:44;3.35;;;1.42;;
2546;SDS011;1283;47.982;7.834;2022-12-29T13:22:16;5.20;;;1.25;;
2546;SDS011;1283;47.982;7.834;2022-12-29T13:24:50;3.08;;;1.48;;
2546;SDS011;1283;47.982;7.834;2022-12-29T13:27:32;3.60;;;1.17;;
2546;SDS011;1283;47.982;7.834;2022-12-29T13:30:03;2.38;;;1.25;;
2546;SDS011;1283;47.982;7.834;2022-12-29T13:32:35;4.38;;;1.60;;
2546;SDS011;1283;47.982;7.834;2022-12-29T13:35:15;3.22;;;1.20;;
2546;SDS011;1283;47.982;7.834;2022-12-29T13:37:50;3.95;;;1.33;;
2546;SDS011;1283;47.982;7.834;2022-12-29T13:40:21;3.92;;;1.65;;
2546;SDS011;1283;47.982;7.834;2022-12-29T13:42:49;4.22;;;1.20;;
2546;SDS011;1283;47.982;7.834;2022-12-29T13:45:16;2.22;;;1.38;;
2546;SDS011;1283;47.982;7.834;2022-12-29T13:47:46;3.70;;;1.17;;
2546;SDS011;1283;47.982;7.834;2022-12-29T13:50:17;3.30;;;1.27;;
2546;SDS011;1283;47.982;7.834;2022-12-29T13:52:45;5.45;;;1.30;;
2546;SDS011;1283;47.982;7.834;2022-12-29T13:55:22;7.60;;;1.65;;
2546;SDS011;1283;47.982;7.834;2022-12-29T13:57:52;7.47;;;1.33;;
2546;SDS011;1283;47.982;7.834;2022-12-29T14:00:21;4.30;;;1.70;;
2546;SDS011;1283;47.982;7.834;2022-12-29T14:03:01;3.63;;;1.40;;
2546;SDS011;1283;47.982;7.834;2022-12-29T14:05:40;4.30;;;2.13;;
2546;SDS011;1283;47.982;7.834;2022-12-29T14:08:14;4.53;;;1.63;;
2546;SDS011;1283;47.982;7.834;2022-12-29T14:10:47;7.78;;;2.00;;
2546;SDS011;1283;47.982;7.834;2022-12-29T14:13:15;6.38;;;2.13;;
2546;SDS011;1283;47.982;7.834;2022-12-29T14:15:43;12.23;;;2.90;;
2546;SDS011;1283;47.982;7.834;2022-12-29T14:18:12;3.55;;;1.88;;
2546;SDS011;1283;47.982;7.834;2022-12-29T14:20:46;4.47;;;1.92;;
2546;SDS011;1283;47.982;7.834;2022-12-29T14:23:25;5.45;;;1.90;;
2546;SDS011;1283;47.982;7.834;2022-12-29T14:25:59;5.55;;;1.70;;
2546;SDS011;1283;47.982;7.834;2022-12-29T14:28:26;4.63;;;1.40;;
2546;SDS011;1283;47.982;7.834;2022-12-29T14:30:54;8.25;;;1.52;;
2546;SDS011;1283;47.982;7.834;2022-12-29T14:33:21;3.28;;;1.50;;
2546;SDS011;1283;47.982;7.834;2022-12-29T14:35:51;9.85;;;1.80;;
2546;SDS011;1283;47.982;7.834;2022-12-29T14:38:19;3.72;;;1.73;;
2546;SDS011;1283;47.982;7.834;2022-12-29T14:40:47;2.00;;;1.20;;
2546;SDS011;1283;47.982;7.834;2022-12-29T14:43:18;3.47;;;1.55;;
2546;SDS011;1283;47.982;7.834;2022-12-29T14:45:51;4.20;;;1.90;;
2546;SDS011;1283;47.982;7.834;2022-12-29T14:51:15;7.15;;;1.52;;
2546;SDS011;1283;47.982;7.834;2022-12-29T14:53:45;3.72;;;1.60;;
2546;SDS011;1283;47.982;7.834;2022-12-29T14:56:13;3.78;;;1.50;;
2546;SDS011;1283;47.982;7.834;2022-12-29T14:58:44;6.70;;;1.45;;
2546;SDS011;1283;47.982;7.834;2022-12-29T15:01:18;4.40;;;1.77;;
2546;SDS011;1283;47.982;7.834;2022-12-29T15:03:47;7.88;;;1.60;;
2546;SDS011;1283;47.982;7.834;2022-12-29T15:06:16;4.85;;;1.42;;
2546;SDS011;1283;47.982;7.834;2022-12-29T15:08:46;11.13;;;1.48;;
2546;SDS011;1283;47.982;7.834;2022-12-29T15:11:17;3.08;;;1.45;;
2546;SDS011;1283;47.982;7.834;2022-12-29T15:13:47;7.78;;;4.88;;
2546;SDS011;1283;47.982;7.834;2022-12-29T15:16:21;4.13;;;1.70;;
2546;SDS011;1283;47.982;7.834;2022-12-29T15:18:48;6.93;;;1.98;;
2546;SDS011;1283;47.982;7.834;2022-12-29T15:21:15;3.65;;;1.60;;
2546;SDS011;1283;47.982;7.834;2022-12-29T15:23:42;5.50;;;2.17;;
2546;SDS011;1283;47.982;7.834;2022-12-29T15:26:10;8.70;;;2.13;;
2546;SDS011;1283;47.982;7.834;2022-12-29T15:28:38;6.60;;;2.10;;
2546;SDS011;1283;47.982;7.834;2022-12-29T15:31:10;2.38;;;1.65;;
2546;SDS011;1283;47.982;7.834;2022-12-29T15:33:38;8.10;;;1.88;;
2546;SDS011;1283;47.982;7.834;2022-12-29T15:36:09;3.80;;;1.83;;
2546;SDS011;1283;47.982;7.834;2022-12-29T15:38:37;6.10;;;1.60;;